createdAt,value
2022-10-04T00:00:12.593Z,84.51
2022-10-04T00:03:08.197Z,84.45
2022-10-04T00:05:41.633Z,84.39
2022-10-04T00:08:31.042Z,84.32
2022-10-04T00:11:16.211Z,84.27
2022-10-04T00:13:52.885Z,84.33
2022-10-04T00:16:31.326Z,84.42
2022-10-04T00:19:28.254Z,84.49
2022-10-04T00:22:17.552Z,84.44
2022-10-04T00:25:21.790Z,84.58
2022-10-04T00:28:20.121Z,84.61
2022-10-04T00:31:13.271Z,84.73
2022-10-04T00:33:45.224Z,84.81
2022-10-04T00:36:52.563Z,84.82
2022-10-04T00:39:44.789Z,84.99
2022-10-04T00:42:38.547Z,85.06
2022-10-04T00:45:18.568Z,85.14
2022-10-04T00:48:30.472Z,85.30
2022-10-04T00:51:10.582Z,85.35
2022-10-04T00:53:50.574Z,85.63
2022-10-04T00:56:31.150Z,85.74
2022-10-04T00:59:23.332Z,85.95
2022-10-04T01:01:57.139Z,85.91
2022-10-04T01:04:35.110Z,86.08
2022-10-04T01:07:08.146Z,86.16
2022-10-04T01:09:47.490Z,86.15
2022-10-04T01:12:29.727Z,86.14
2022-10-04T01:15:07.493Z,86.24
2022-10-04T01:17:38.600Z,86.25
2022-10-04T01:20:30.929Z,86.24
2022-10-04T01:23:01.881Z,86.28
2022-10-04T01:25:50.223Z,86.17
2022-10-04T01:28:19.499Z,86.23
2022-10-04T01:30:50.874Z,86.31
2022-10-04T01:33:22.026Z,86.22
2022-10-04T01:35:53.136Z,86.23
2022-10-04T01:38:22.368Z,86.21
2022-10-04T01:41:00.067Z,86.19
2022-10-04T01:43:37.859Z,86.19
2022-10-04T01:46:14.481Z,86.15
2022-10-04T01:48:48.136Z,86.13
2022-10-04T01:51:23.088Z,86.04
2022-10-04T01:54:00.165Z,86.02
2022-10-04T01:56:38.333Z,85.97
2022-10-04T01:59:15.480Z,85.97
2022-10-04T02:01:51.710Z,86.06
2022-10-04T02:04:28.089Z,86.02
2022-10-04T02:07:01.473Z,85.89
2022-10-04T02:09:36.610Z,86.02
2022-10-04T02:12:07.990Z,86.10
2022-10-04T02:14:45.349Z,86.20
2022-10-04T02:17:17.316Z,86.20
2022-10-04T02:19:49.169Z,86.20
2022-10-04T02:22:21.315Z,86.30
2022-10-04T02:24:54.620Z,86.34
2022-10-04T02:27:30.084Z,86.38
2022-10-04T02:30:07.117Z,86.29
2022-10-04T02:32:57.485Z,86.38
2022-10-04T02:35:30.793Z,86.36
2022-10-04T02:38:10.339Z,86.36
2022-10-04T02:40:48.698Z,86.29
2022-10-04T02:43:24.751Z,86.27
2022-10-04T02:46:02.662Z,86.17
2022-10-04T02:48:40.609Z,86.11
2022-10-04T02:51:20.941Z,86.12
2022-10-04T02:54:03.125Z,86.08
2022-10-04T02:56:36.597Z,85.95
2022-10-04T02:59:08.580Z,85.89
2022-10-04T03:01:52.820Z,85.85
2022-10-04T03:04:26.600Z,85.72
2022-10-04T03:06:59.472Z,85.61
2022-10-04T03:09:30.360Z,85.63
2022-10-04T03:12:00.262Z,85.73
2022-10-04T03:14:32.932Z,85.73
2022-10-04T03:17:06.126Z,85.77
2022-10-04T03:19:38.790Z,85.85
2022-10-04T03:22:13.361Z,85.84
2022-10-04T03:24:49.300Z,85.86
2022-10-04T03:27:24.985Z,85.91
2022-10-04T03:29:59.308Z,85.94
2022-10-04T03:32:32.322Z,86.01
2022-10-04T03:35:08.671Z,86.05
2022-10-04T03:37:41.540Z,85.92
2022-10-04T03:40:15.856Z,86.03
2022-10-04T03:42:49.581Z,85.93
2022-10-04T03:45:22.569Z,86.09
2022-10-04T03:47:58.809Z,86.10
2022-10-04T03:50:34.313Z,86.18
2022-10-04T03:53:10.725Z,86.16
2022-10-04T03:55:45.306Z,86.17
2022-10-04T03:58:18.968Z,86.15
2022-10-04T04:01:04.482Z,86.09
2022-10-04T04:03:47.928Z,86.16
2022-10-04T04:06:21.553Z,86.28
2022-10-04T04:08:56.007Z,86.23
2022-10-04T04:11:28.944Z,86.45
2022-10-04T04:14:06.408Z,86.48
2022-10-04T04:16:39.972Z,86.78
2022-10-04T04:19:19.863Z,86.69
2022-10-04T04:21:51.404Z,86.78
2022-10-04T04:24:28.995Z,86.70
2022-10-04T04:27:05.305Z,86.71
2022-10-04T04:29:45.800Z,86.71
2022-10-04T04:32:23.252Z,86.75
2022-10-04T04:34:58.412Z,86.78
2022-10-04T04:37:30.244Z,86.75
2022-10-04T04:40:20.870Z,86.73
2022-10-04T04:42:52.567Z,86.69
2022-10-04T04:45:29.625Z,86.65
2022-10-04T04:48:00.171Z,86.82
2022-10-04T04:50:34.443Z,86.82
2022-10-04T04:53:10.195Z,86.82
2022-10-04T04:56:02.736Z,86.80
2022-10-04T04:58:37.513Z,86.82
2022-10-04T05:01:17.233Z,86.85
2022-10-04T05:04:00.463Z,86.79
2022-10-04T05:06:31.158Z,86.72
2022-10-04T05:09:02.239Z,86.73
2022-10-04T05:11:35.762Z,86.78
2022-10-04T05:14:10.681Z,86.71
2022-10-04T05:16:44.395Z,86.62
2022-10-04T05:19:21.719Z,86.63
2022-10-04T05:21:55.300Z,86.39
2022-10-04T05:24:29.594Z,86.33
2022-10-04T05:27:03.884Z,86.36
2022-10-04T05:29:39.461Z,86.21
2022-10-04T05:32:25.891Z,85.96
2022-10-04T05:34:57.363Z,85.87
2022-10-04T05:37:44.526Z,85.75
2022-10-04T05:40:32.272Z,85.78
2022-10-04T05:43:03.211Z,85.62
2022-10-04T05:45:34.456Z,85.46
2022-10-04T05:48:10.728Z,85.46
2022-10-04T05:50:45.412Z,85.27
2022-10-04T05:53:28.566Z,85.16
2022-10-04T05:56:13.878Z,85.00
2022-10-04T05:59:01.408Z,85.03
2022-10-04T06:01:44.491Z,85.12
2022-10-04T06:04:30.665Z,85.13
2022-10-04T06:07:09.135Z,85.12
2022-10-04T06:10:05.064Z,84.93
2022-10-04T06:12:48.533Z,84.91
2022-10-04T06:15:44.074Z,84.65
2022-10-04T06:18:40.121Z,84.34
2022-10-04T06:21:21.628Z,83.88
2022-10-04T06:24:00.403Z,83.66
2022-10-04T06:26:36.452Z,83.65
2022-10-04T06:29:12.184Z,83.36
2022-10-04T06:32:15.951Z,82.42
2022-10-04T06:35:16.790Z,82.03
2022-10-04T06:38:20.909Z,82.13
2022-10-04T06:41:04.545Z,81.69
2022-10-04T06:44:03.120Z,81.34
2022-10-04T06:46:42.493Z,81.20
2022-10-04T06:49:36.145Z,81.66
2022-10-04T06:52:41.525Z,81.44
2022-10-04T06:55:38.132Z,79.73
2022-10-04T06:58:25.758Z,78.79
2022-10-04T07:01:03.590Z,79.26
2022-10-04T07:03:42.064Z,77.66
2022-10-04T07:06:14.067Z,77.43
2022-10-04T07:08:51.051Z,77.64
2022-10-04T07:11:28.622Z,77.72
2022-10-04T07:14:07.188Z,77.56
2022-10-04T07:16:45.899Z,76.79
2022-10-04T07:19:36.235Z,76.55
2022-10-04T07:22:18.780Z,77.22
2022-10-04T07:25:08.265Z,77.29
2022-10-04T07:28:11.295Z,76.88
2022-10-04T07:30:47.756Z,77.11
2022-10-04T07:33:19.675Z,77.63
2022-10-04T07:35:55.107Z,77.93
2022-10-04T07:38:30.867Z,76.97
2022-10-04T07:41:09.344Z,76.85
2022-10-04T07:43:49.348Z,76.97
2022-10-04T07:46:29.137Z,77.34
2022-10-04T07:49:01.224Z,77.32
2022-10-04T07:51:41.507Z,76.97
2022-10-04T07:54:18.874Z,76.22
2022-10-04T07:56:55.308Z,75.64
2022-10-04T07:59:40.719Z,75.45
2022-10-04T08:02:26.608Z,75.54
2022-10-04T08:05:09.506Z,76.11
2022-10-04T08:07:58.140Z,75.20
2022-10-04T08:10:35.538Z,74.75
2022-10-04T08:13:17.634Z,74.87
2022-10-04T08:15:49.063Z,74.49
2022-10-04T08:18:27.818Z,74.42
2022-10-04T08:21:00.786Z,73.72
2022-10-04T08:23:47.340Z,73.49
2022-10-04T08:26:38.084Z,73.45
2022-10-04T08:29:43.960Z,73.89
2022-10-04T08:32:31.141Z,73.75
2022-10-04T08:35:23.751Z,72.57
2022-10-04T08:38:09.563Z,72.22
2022-10-04T08:41:26.472Z,72.36
2022-10-04T08:44:45.583Z,71.58
2022-10-04T08:47:43.511Z,70.99
2022-10-04T08:50:47.574Z,71.75
2022-10-04T08:53:54.411Z,71.32
2022-10-04T08:56:46.870Z,69.35
2022-10-04T08:59:45.526Z,69.89
2022-10-04T09:02:57.359Z,68.82
2022-10-04T09:05:55.238Z,69.11
2022-10-04T09:08:55.771Z,67.02
2022-10-04T09:11:45.348Z,65.56
2022-10-04T09:14:39.886Z,67.07
2022-10-04T09:17:22.993Z,65.99
2022-10-04T09:20:20.008Z,65.39
2022-10-04T09:23:06.390Z,65.14
2022-10-04T09:25:56.484Z,64.50
2022-10-04T09:28:50.619Z,64.14
2022-10-04T09:31:53.759Z,62.63
2022-10-04T09:34:41.914Z,63.19
2022-10-04T09:37:26.225Z,61.52
2022-10-04T09:40:37.704Z,60.89
2022-10-04T09:43:43.973Z,61.73
2022-10-04T09:46:29.503Z,60.46
2022-10-04T09:49:13.600Z,61.11
2022-10-04T09:52:15.518Z,59.69
2022-10-04T09:55:08.945Z,61.32
2022-10-04T09:57:54.484Z,61.42
2022-10-04T10:00:27.656Z,60.39
2022-10-04T10:03:30.866Z,60.25
2022-10-04T10:06:25.748Z,58.15
2022-10-04T10:09:17.172Z,59.07
2022-10-04T10:12:16.888Z,58.63
2022-10-04T10:15:10.849Z,59.50
2022-10-04T10:17:51.332Z,59.58
2022-10-04T10:20:51.200Z,59.88
2022-10-04T10:23:31.435Z,58.26
2022-10-04T10:26:22.993Z,58.24
2022-10-04T10:29:17.727Z,58.38
2022-10-04T10:32:00.820Z,58.04
2022-10-04T10:34:47.374Z,58.18
2022-10-04T10:37:22.499Z,58.08
2022-10-04T10:40:17.737Z,58.24
2022-10-04T10:43:20.235Z,57.32
2022-10-04T10:46:05.989Z,56.32
2022-10-04T10:48:56.892Z,57.82
2022-10-04T10:51:49.227Z,58.11
2022-10-04T10:54:42.567Z,57.34
2022-10-04T10:57:29.618Z,56.94
2022-10-04T11:00:20.684Z,57.30
2022-10-04T11:03:21.829Z,57.05
2022-10-04T11:06:15.220Z,56.47
2022-10-04T11:09:25.197Z,57.47
2022-10-04T11:12:34.087Z,55.49
2022-10-04T11:15:26.072Z,57.78
2022-10-04T11:18:21.389Z,57.49
2022-10-04T11:21:27.067Z,57.07
2022-10-04T11:24:32.461Z,57.41
2022-10-04T11:27:19.582Z,58.00
2022-10-04T11:30:04.328Z,59.36
2022-10-04T11:33:06.131Z,59.14
2022-10-04T11:36:08.250Z,58.34
2022-10-04T11:38:59.104Z,59.89
2022-10-04T11:41:44.467Z,60.42
2022-10-04T11:44:41.265Z,59.17
2022-10-04T11:47:27.823Z,57.11
2022-10-04T11:50:15.757Z,56.52
2022-10-04T11:53:26.026Z,56.74
2022-10-04T11:56:29.800Z,57.30
2022-10-04T11:59:19.696Z,57.15
2022-10-04T12:02:24.285Z,57.89
2022-10-04T12:05:16.758Z,58.55
2022-10-04T12:07:55.631Z,59.58
2022-10-04T12:10:31.257Z,59.33
2022-10-04T12:13:20.248Z,59.23
2022-10-04T12:16:27.746Z,59.54
2022-10-04T12:19:51.332Z,59.32
2022-10-04T12:22:53.015Z,59.56
2022-10-04T12:25:54.154Z,60.54
2022-10-04T12:28:42.107Z,58.16
2022-10-04T12:31:25.115Z,56.75
2022-10-04T12:34:06.075Z,57.80
2022-10-04T12:36:56.752Z,57.87
2022-10-04T12:39:41.067Z,58.14
2022-10-04T12:42:24.430Z,58.55
2022-10-04T12:45:22.030Z,58.23
2022-10-04T12:48:08.556Z,56.78
2022-10-04T12:50:55.815Z,56.35
2022-10-04T12:53:40.410Z,56.67
2022-10-04T12:56:34.053Z,56.24
2022-10-04T12:59:20.648Z,54.87
2022-10-04T13:01:58.766Z,55.49
2022-10-04T13:04:36.372Z,54.87
2022-10-04T13:07:28.675Z,54.90
2022-10-04T13:10:24.553Z,54.76
2022-10-04T13:13:24.209Z,55.51
2022-10-04T13:19:09.497Z,54.69
2022-10-04T13:22:08.101Z,54.43
2022-10-04T13:24:56.142Z,54.93
2022-10-04T13:27:34.985Z,55.38
2022-10-04T13:30:16.716Z,55.65
2022-10-04T13:32:55.528Z,56.03
2022-10-04T13:35:36.521Z,56.57
2022-10-04T13:38:33.383Z,56.34
2022-10-04T13:41:18.607Z,56.27
2022-10-04T13:44:09.881Z,56.60
2022-10-04T13:46:52.256Z,57.02
2022-10-04T13:49:36.737Z,57.07
2022-10-04T13:52:45.620Z,56.07
2022-10-04T13:55:45.673Z,56.69
2022-10-04T13:58:34.293Z,56.47
2022-10-04T14:01:39.183Z,56.50
2022-10-04T14:04:30.155Z,57.37
2022-10-04T14:07:32.318Z,56.77
2022-10-04T14:10:24.900Z,56.66
2022-10-04T14:13:33.319Z,57.22
2022-10-04T14:16:43.246Z,56.87
2022-10-04T14:19:43.196Z,56.29
2022-10-04T14:22:34.256Z,55.03
2022-10-04T14:25:31.214Z,55.08
2022-10-04T14:28:38.670Z,55.56
2022-10-04T14:31:30.253Z,55.59
2022-10-04T14:34:34.212Z,55.79
2022-10-04T14:37:25.883Z,55.18
2022-10-04T14:40:10.292Z,55.02
2022-10-04T14:42:55.890Z,53.96
2022-10-04T14:45:39.735Z,52.30
2022-10-04T14:48:38.501Z,50.45
2022-10-04T14:51:32.351Z,51.18
2022-10-04T14:54:09.859Z,50.49
2022-10-04T14:57:01.925Z,51.46
2022-10-04T14:59:57.445Z,51.02
2022-10-04T15:02:49.580Z,52.75
2022-10-04T15:05:37.560Z,53.99
2022-10-04T15:08:47.198Z,54.93
2022-10-04T15:11:32.914Z,55.32
2022-10-04T15:14:22.232Z,56.34
2022-10-04T15:16:58.284Z,56.92
2022-10-04T15:19:37.639Z,57.33
2022-10-04T15:22:21.193Z,57.95
2022-10-04T15:24:53.418Z,58.01
2022-10-04T15:27:47.742Z,58.35
2022-10-04T15:30:27.557Z,57.95
2022-10-04T15:33:20.827Z,58.01
2022-10-04T15:36:23.813Z,57.84
2022-10-04T15:39:03.251Z,57.52
2022-10-04T15:41:47.005Z,57.82
2022-10-04T15:44:43.428Z,57.83
2022-10-04T15:47:23.208Z,58.03
2022-10-04T15:50:11.051Z,58.15
2022-10-04T15:53:20.457Z,58.63
2022-10-04T15:56:12.961Z,59.63
2022-10-04T15:59:26.395Z,60.35
2022-10-04T16:02:36.131Z,61.07
2022-10-04T16:05:19.156Z,61.80
2022-10-04T16:08:07.100Z,63.05
2022-10-04T16:11:09.563Z,63.51
2022-10-04T16:13:55.745Z,63.97
2022-10-04T16:16:59.987Z,64.70
2022-10-04T16:20:20.098Z,65.53
2022-10-04T16:23:22.098Z,66.21
2022-10-04T16:25:51.995Z,66.81
2022-10-04T16:28:39.556Z,67.81
2022-10-04T16:31:40.316Z,68.77
2022-10-04T16:34:41.752Z,69.21
2022-10-04T16:37:31.803Z,69.65
2022-10-04T16:40:20.317Z,69.97
2022-10-04T16:42:59.538Z,70.44
2022-10-04T16:45:45.799Z,70.88
2022-10-04T16:48:33.630Z,71.30
2022-10-04T16:51:36.532Z,71.95
2022-10-04T16:54:31.256Z,72.19
2022-10-04T16:57:23.071Z,72.53
2022-10-04T16:59:58.052Z,72.71
2022-10-04T17:02:54.229Z,73.03
2022-10-04T17:05:47.316Z,73.21
2022-10-04T17:08:47.103Z,73.47
2022-10-04T17:11:41.343Z,73.62
2022-10-04T17:14:46.425Z,74.04
2022-10-04T17:17:29.996Z,74.28
2022-10-04T17:20:08.316Z,74.49
2022-10-04T17:22:50.271Z,74.56
2022-10-04T17:25:28.764Z,74.91
2022-10-04T17:28:13.292Z,75.36
2022-10-04T17:30:55.444Z,75.37
2022-10-04T17:33:37.946Z,75.37
2022-10-04T17:36:31.936Z,75.42
2022-10-04T17:39:16.596Z,75.72
2022-10-04T17:42:02.419Z,76.03
2022-10-04T17:44:42.234Z,76.22
2022-10-04T17:47:23.585Z,76.16
2022-10-04T17:50:22.000Z,76.13
2022-10-04T17:53:23.587Z,75.95
2022-10-04T17:55:56.364Z,76.25
2022-10-04T17:58:39.896Z,76.54
2022-10-04T18:01:11.121Z,76.69
2022-10-04T18:03:46.795Z,77.06
2022-10-04T18:06:33.685Z,77.64
2022-10-04T18:09:14.246Z,77.63
2022-10-04T18:11:50.046Z,77.62
2022-10-04T18:14:56.681Z,77.67
2022-10-04T18:17:35.949Z,77.87
2022-10-04T18:20:28.176Z,77.86
2022-10-04T18:23:15.886Z,77.72
2022-10-04T18:25:47.480Z,77.81
2022-10-04T18:28:23.324Z,78.12
2022-10-04T18:31:00.542Z,78.10
2022-10-04T18:33:50.364Z,78.10
2022-10-04T18:36:24.743Z,78.06
2022-10-04T18:39:21.222Z,78.32
2022-10-04T18:42:08.873Z,78.26
2022-10-04T18:44:48.486Z,78.05
2022-10-04T18:47:35.404Z,78.96
2022-10-04T18:50:25.041Z,79.84
2022-10-04T18:53:03.309Z,79.49
2022-10-04T18:55:42.692Z,79.66
2022-10-04T18:58:44.936Z,79.66
2022-10-04T19:01:52.610Z,79.52
2022-10-04T19:04:33.802Z,79.35
2022-10-04T19:07:11.571Z,79.32
2022-10-04T19:10:17.859Z,79.39
2022-10-04T19:12:59.559Z,79.63
2022-10-04T19:15:42.882Z,79.68
2022-10-04T19:18:42.095Z,79.89
2022-10-04T19:21:20.995Z,79.60
2022-10-04T19:24:20.519Z,79.52
2022-10-04T19:26:56.551Z,79.47
2022-10-04T19:29:36.551Z,79.59
2022-10-04T19:32:11.186Z,79.92
2022-10-04T19:34:53.831Z,80.19
2022-10-04T19:37:28.816Z,80.21
2022-10-04T19:40:10.021Z,79.90
2022-10-04T19:42:50.327Z,79.94
2022-10-04T19:45:34.026Z,80.16
2022-10-04T19:48:13.712Z,80.33
2022-10-04T19:50:49.088Z,80.20
2022-10-04T19:53:23.339Z,80.10
2022-10-04T19:55:58.218Z,80.53
2022-10-04T19:58:41.277Z,80.89
2022-10-04T20:01:16.687Z,80.58
2022-10-04T20:04:07.828Z,80.61
2022-10-04T20:06:40.841Z,81.31
2022-10-04T20:09:27.078Z,81.06
2022-10-04T20:11:58.609Z,80.94
2022-10-04T20:14:48.602Z,80.94
2022-10-04T20:17:34.157Z,80.95
2022-10-04T20:20:05.225Z,80.81
2022-10-04T20:22:58.310Z,80.75
2022-10-04T20:26:02.984Z,80.68
2022-10-04T20:28:44.772Z,80.43
2022-10-04T20:31:54.839Z,80.38
2022-10-04T20:34:48.381Z,80.18
2022-10-04T20:37:21.574Z,80.21
2022-10-04T20:40:01.488Z,80.06
2022-10-04T20:42:41.651Z,80.08
2022-10-04T20:45:28.650Z,80.13
2022-10-04T20:47:59.612Z,80.05
2022-10-04T20:50:43.326Z,80.10
2022-10-04T20:53:21.825Z,80.12
2022-10-04T20:56:12.565Z,80.22
2022-10-04T20:58:44.131Z,80.67
2022-10-04T21:01:46.438Z,80.62
2022-10-04T21:04:29.783Z,80.80
2022-10-04T21:07:00.228Z,80.62
2022-10-04T21:09:32.431Z,80.68
2022-10-04T21:12:04.635Z,80.66
2022-10-04T21:14:37.416Z,80.75
2022-10-04T21:17:37.378Z,80.67
2022-10-04T21:20:15.870Z,80.53
2022-10-04T21:22:50.974Z,80.52
2022-10-04T21:25:36.543Z,80.50
2022-10-04T21:28:25.288Z,80.65
2022-10-04T21:30:56.389Z,80.83
2022-10-04T21:33:27.683Z,80.97
2022-10-04T21:35:58.730Z,80.84
2022-10-04T21:38:28.636Z,80.96
2022-10-04T21:40:58.106Z,80.99
2022-10-04T21:43:29.639Z,80.91
2022-10-04T21:46:01.169Z,80.78
2022-10-04T21:48:32.527Z,80.86
2022-10-04T21:51:03.720Z,81.19
2022-10-04T21:53:34.648Z,81.54
2022-10-04T21:56:07.715Z,81.47
2022-10-04T21:58:38.617Z,81.49
2022-10-04T22:01:08.288Z,81.29
2022-10-04T22:03:39.431Z,81.17
2022-10-04T22:06:08.950Z,81.15
2022-10-04T22:08:39.756Z,81.32
2022-10-04T22:11:11.007Z,81.44
2022-10-04T22:14:35.006Z,81.60
2022-10-04T22:17:06.185Z,81.69
2022-10-04T22:19:36.989Z,81.46
2022-10-04T22:22:13.082Z,81.24
2022-10-04T22:24:44.603Z,81.22
2022-10-04T22:27:17.876Z,81.17
2022-10-04T22:29:49.044Z,81.11
2022-10-04T22:32:21.930Z,80.87
2022-10-04T22:34:53.211Z,80.97
2022-10-04T22:37:25.783Z,81.17
2022-10-04T22:39:58.737Z,81.45
2022-10-04T22:42:32.480Z,81.49
2022-10-04T22:45:04.580Z,81.69
2022-10-04T22:47:35.889Z,81.80
2022-10-04T22:50:18.502Z,81.86
2022-10-04T22:52:49.791Z,81.91
2022-10-04T22:55:21.616Z,82.00
2022-10-04T22:57:52.719Z,81.90
2022-10-04T23:00:23.684Z,81.65
2022-10-04T23:02:56.017Z,81.61
2022-10-04T23:05:28.229Z,81.54
2022-10-04T23:07:59.278Z,81.66
2022-10-04T23:10:30.265Z,81.59
2022-10-04T23:13:01.171Z,81.65
2022-10-04T23:15:32.018Z,81.68
2022-10-04T23:18:03.078Z,81.72
2022-10-04T23:20:32.426Z,81.53
2022-10-04T23:23:03.697Z,81.46
2022-10-04T23:25:33.997Z,81.34
2022-10-04T23:28:13.880Z,81.64
2022-10-04T23:30:45.981Z,81.94
2022-10-04T23:33:21.093Z,81.88
2022-10-04T23:35:55.158Z,81.94
2022-10-04T23:38:27.419Z,82.07
2022-10-04T23:40:58.489Z,81.91
2022-10-04T23:43:31.891Z,81.72
2022-10-04T23:46:02.898Z,81.60
2022-10-04T23:48:33.989Z,81.37
2022-10-04T23:51:05.099Z,81.35
2022-10-04T23:53:36.493Z,81.46
2022-10-04T23:56:13.469Z,81.31
2022-10-04T23:58:44.998Z,81.46
